Terminal Aerodrome Forecast
Issued by NWS

Home | Current Version | Previous Version | Text Only | Print | Product List | Glossary On
Versions: 1 2 3 4 5 6 7 8 9 10 11 12 13 14 15 16 17 18 19 20
000
FTUS45 KGJT 220520
TAFEGE
TAF
KEGE 220520Z 2206/2306 VRB03KT P6SM VCSH SCT060 BKN090
     FM220900 VRB03KT P6SM VCSH BKN090
     FM221900 27007KT P6SM VCSH SCT050 BKN090
     FM230200 10004KT P6SM FEW090 SCT150
      AMD LTD TO CLD VIS AND WIND TIL 221300=

USA.gov is the U.S. government's official web portal to all federal, state and local government web resources and services.